sensor_id;sensor_type;location;lat;lon;timestamp;pressure;altitude;pressure_sealevel;temperature;humidity
69982;BME280;57319;56.274;43.980;2023-01-29T00:02:21;100017.16;;;-4.41;76.58
69982;BME280;57319;56.274;43.980;2023-01-29T00:04:46;100018.03;;;-4.41;76.74
69982;BME280;57319;56.274;43.980;2023-01-29T00:07:12;100011.34;;;-4.40;76.40
69982;BME280;57319;56.274;43.980;2023-01-29T00:09:38;100013.78;;;-4.42;76.10
69982;BME280;57319;56.274;43.980;2023-01-29T00:12:04;100009.78;;;-4.38;76.08
69982;BME280;57319;56.274;43.980;2023-01-29T00:14:31;100001.16;;;-4.27;76.27
69982;BME280;57319;56.274;43.980;2023-01-29T00:16:57;99995.56;;;-4.21;75.81
69982;BME280;57319;56.274;43.980;2023-01-29T00:19:22;99992.63;;;-4.13;75.62
69982;BME280;57319;56.274;43.980;2023-01-29T00:21:48;99992.25;;;-4.04;75.77
69982;BME280;57319;56.274;43.980;2023-01-29T00:24:14;99987.44;;;-3.99;75.69
69982;BME280;57319;56.274;43.980;2023-01-29T00:26:39;99987.00;;;-3.90;76.22
69982;BME280;57319;56.274;43.980;2023-01-29T00:29:06;99980.50;;;-3.87;76.42
69982;BME280;57319;56.274;43.980;2023-01-29T00:31:32;99977.97;;;-3.87;76.86
69982;BME280;57319;56.274;43.980;2023-01-29T00:33:58;99978.19;;;-3.82;76.64
69982;BME280;57319;56.274;43.980;2023-01-29T00:36:24;99972.09;;;-3.87;77.30
69982;BME280;57319;56.274;43.980;2023-01-29T00:38:58;99973.03;;;-3.85;77.70
69982;BME280;57319;56.274;43.980;2023-01-29T00:41:29;99975.75;;;-3.81;78.05
69982;BME280;57319;56.274;43.980;2023-01-29T00:44:13;99971.25;;;-3.70;77.96
69982;BME280;57319;56.274;43.980;2023-01-29T00:46:58;99959.63;;;-3.68;77.46
69982;BME280;57319;56.274;43.980;2023-01-29T00:49:24;99966.38;;;-3.67;77.93
69982;BME280;57319;56.274;43.980;2023-01-29T00:51:50;99955.50;;;-3.66;77.85
69982;BME280;57319;56.274;43.980;2023-01-29T00:54:49;99957.31;;;-3.63;77.87
69982;BME280;57319;56.274;43.980;2023-01-29T00:57:14;99952.50;;;-3.59;78.00
69982;BME280;57319;56.274;43.980;2023-01-29T00:59:40;99956.00;;;-3.55;78.03
69982;BME280;57319;56.274;43.980;2023-01-29T01:02:05;99951.03;;;-3.53;78.04
69982;BME280;57319;56.274;43.980;2023-01-29T01:04:49;99939.94;;;-3.59;78.58
69982;BME280;57319;56.274;43.980;2023-01-29T01:07:15;99939.03;;;-3.59;78.56
69982;BME280;57319;56.274;43.980;2023-01-29T01:09:41;99930.56;;;-3.61;78.83
69982;BME280;57319;56.274;43.980;2023-01-29T01:12:25;99924.91;;;-3.57;79.11
69982;BME280;57319;56.274;43.980;2023-01-29T01:14:50;99915.75;;;-3.55;79.18
69982;BME280;57319;56.274;43.980;2023-01-29T01:17:16;99928.19;;;-3.58;79.29
69982;BME280;57319;56.274;43.980;2023-01-29T01:19:42;99924.91;;;-3.57;79.37
69982;BME280;57319;56.274;43.980;2023-01-29T01:22:07;99932.66;;;-3.52;79.53
69982;BME280;57319;56.274;43.980;2023-01-29T01:24:33;99920.91;;;-3.52;79.61
69982;BME280;57319;56.274;43.980;2023-01-29T01:26:58;99918.50;;;-3.50;79.35
69982;BME280;57319;56.274;43.980;2023-01-29T01:29:24;99926.31;;;-3.44;79.50
69982;BME280;57319;56.274;43.980;2023-01-29T01:31:52;99932.78;;;-3.49;79.97
69982;BME280;57319;56.274;43.980;2023-01-29T01:34:17;99927.75;;;-3.49;80.35
69982;BME280;57319;56.274;43.980;2023-01-29T01:36:43;99922.94;;;-3.45;79.91
69982;BME280;57319;56.274;43.980;2023-01-29T01:39:09;99914.31;;;-3.50;80.52
69982;BME280;57319;56.274;43.980;2023-01-29T01:41:35;99914.13;;;-3.54;80.94
69982;BME280;57319;56.274;43.980;2023-01-29T01:44:02;99912.25;;;-3.59;80.89
69982;BME280;57319;56.274;43.980;2023-01-29T01:46:35;99918.00;;;-3.61;81.30
69982;BME280;57319;56.274;43.980;2023-01-29T01:49:06;99918.84;;;-3.61;81.55
69982;BME280;57319;56.274;43.980;2023-01-29T01:51:37;99908.06;;;-3.58;81.22
69982;BME280;57319;56.274;43.980;2023-01-29T01:54:13;99902.91;;;-3.61;81.60
69982;BME280;57319;56.274;43.980;2023-01-29T01:56:49;99904.41;;;-3.65;81.57
69982;BME280;57319;56.274;43.980;2023-01-29T01:59:18;99912.44;;;-3.72;82.17
69982;BME280;57319;56.274;43.980;2023-01-29T02:01:49;99913.38;;;-3.70;82.22
69982;BME280;57319;56.274;43.980;2023-01-29T02:04:21;99911.81;;;-3.68;82.48
69982;BME280;57319;56.274;43.980;2023-01-29T02:07:09;99906.13;;;-3.64;82.40
69982;BME280;57319;56.274;43.980;2023-01-29T02:10:08;99910.44;;;-3.61;82.31
69982;BME280;57319;56.274;43.980;2023-01-29T02:12:36;99903.75;;;-3.61;82.21
69982;BME280;57319;56.274;43.980;2023-01-29T02:15:03;99904.97;;;-3.70;82.93
69982;BME280;57319;56.274;43.980;2023-01-29T02:17:29;99896.06;;;-3.82;82.99
69982;BME280;57319;56.274;43.980;2023-01-29T02:20:10;99894.47;;;-3.80;82.92
69982;BME280;57319;56.274;43.980;2023-01-29T02:25:58;99881.56;;;-3.69;83.65
69982;BME280;57319;56.274;43.980;2023-01-29T02:28:54;99883.25;;;-3.68;83.29
69982;BME280;57319;56.274;43.980;2023-01-29T02:31:42;99883.19;;;-3.70;83.25
69982;BME280;57319;56.274;43.980;2023-01-29T02:34:13;99890.00;;;-3.67;83.05
69982;BME280;57319;56.274;43.980;2023-01-29T02:39:37;99887.88;;;-3.60;83.79
69982;BME280;57319;56.274;43.980;2023-01-29T02:42:18;99877.09;;;-3.57;83.75
69982;BME280;57319;56.274;43.980;2023-01-29T02:45:04;99875.94;;;-3.64;83.86
69982;BME280;57319;56.274;43.980;2023-01-29T02:47:53;99874.97;;;-3.66;83.38
69982;BME280;57319;56.274;43.980;2023-01-29T02:50:47;99872.47;;;-3.66;84.11
69982;BME280;57319;56.274;43.980;2023-01-29T02:53:22;99868.97;;;-3.69;83.80
69982;BME280;57319;56.274;43.980;2023-01-29T02:56:06;99876.66;;;-3.66;84.02
69982;BME280;57319;56.274;43.980;2023-01-29T02:58:45;99859.63;;;-3.72;84.16
69982;BME280;57319;56.274;43.980;2023-01-29T03:01:46;99857.47;;;-3.82;84.40
69982;BME280;57319;56.274;43.980;2023-01-29T03:04:18;99855.81;;;-3.82;84.83
69982;BME280;57319;56.274;43.980;2023-01-29T03:06:50;99859.97;;;-3.82;84.93
69982;BME280;57319;56.274;43.980;2023-01-29T03:09:38;99849.31;;;-3.77;84.26
69982;BME280;57319;56.274;43.980;2023-01-29T03:12:32;99856.22;;;-3.72;84.49
69982;BME280;57319;56.274;43.980;2023-01-29T03:15:07;99850.84;;;-3.80;84.60
69982;BME280;57319;56.274;43.980;2023-01-29T03:18:01;99848.78;;;-3.71;84.38
69982;BME280;57319;56.274;43.980;2023-01-29T03:20:32;99849.63;;;-3.70;84.44
69982;BME280;57319;56.274;43.980;2023-01-29T03:23:03;99844.03;;;-3.83;84.53
69982;BME280;57319;56.274;43.980;2023-01-29T03:25:34;99847.41;;;-3.82;84.54
69982;BME280;57319;56.274;43.980;2023-01-29T03:28:20;99846.69;;;-3.80;84.38
69982;BME280;57319;56.274;43.980;2023-01-29T03:31:07;99849.44;;;-3.75;84.76
69982;BME280;57319;56.274;43.980;2023-01-29T03:34:21;99836.25;;;-3.69;84.32
69982;BME280;57319;56.274;43.980;2023-01-29T03:37:05;99837.97;;;-3.68;84.42
69982;BME280;57319;56.274;43.980;2023-01-29T03:39:34;99833.81;;;-3.68;83.72
69982;BME280;57319;56.274;43.980;2023-01-29T03:42:06;99828.72;;;-3.69;83.77
69982;BME280;57319;56.274;43.980;2023-01-29T03:45:00;99832.72;;;-3.73;84.05
69982;BME280;57319;56.274;43.980;2023-01-29T03:47:50;99819.16;;;-3.77;84.27
69982;BME280;57319;56.274;43.980;2023-01-29T03:58:31;99825.97;;;-3.74;84.33
69982;BME280;57319;56.274;43.980;2023-01-29T04:01:14;99816.50;;;-3.80;84.12
69982;BME280;57319;56.274;43.980;2023-01-29T04:04:08;99822.53;;;-3.76;83.82
69982;BME280;57319;56.274;43.980;2023-01-29T04:06:40;99821.53;;;-3.80;84.30
69982;BME280;57319;56.274;43.980;2023-01-29T04:09:14;99813.16;;;-3.98;84.41
69982;BME280;57319;56.274;43.980;2023-01-29T04:11:49;99819.81;;;-3.99;84.62
69982;BME280;57319;56.274;43.980;2023-01-29T04:14:17;99812.91;;;-4.03;84.46
69982;BME280;57319;56.274;43.980;2023-01-29T04:16:51;99805.81;;;-4.12;84.31
69982;BME280;57319;56.274;43.980;2023-01-29T04:19:18;99808.41;;;-4.10;83.43
69982;BME280;57319;56.274;43.980;2023-01-29T04:21:45;99802.44;;;-4.12;83.57
69982;BME280;57319;56.274;43.980;2023-01-29T04:24:13;99805.59;;;-4.16;82.95
69982;BME280;57319;56.274;43.980;2023-01-29T04:34:36;99787.38;;;-4.12;82.06
69982;BME280;57319;56.274;43.980;2023-01-29T04:37:15;99778.75;;;-4.17;81.84
69982;BME280;57319;56.274;43.980;2023-01-29T04:39:58;99784.34;;;-4.23;81.52
69982;BME280;57319;56.274;43.980;2023-01-29T04:42:33;99776.72;;;-4.24;81.28
69982;BME280;57319;56.274;43.980;2023-01-29T04:45:33;99769.03;;;-4.28;81.16
69982;BME280;57319;56.274;43.980;2023-01-29T04:48:12;99771.34;;;-4.32;81.11
69982;BME280;57319;56.274;43.980;2023-01-29T04:50:56;99765.34;;;-4.34;80.97
69982;BME280;57319;56.274;43.980;2023-01-29T04:53:46;99766.75;;;-4.41;80.90
69982;BME280;57319;56.274;43.980;2023-01-29T04:56:20;99765.00;;;-4.42;81.21
69982;BME280;57319;56.274;43.980;2023-01-29T04:59:11;99758.19;;;-4.45;80.75
69982;BME280;57319;56.274;43.980;2023-01-29T05:01:38;99775.56;;;-4.49;80.77
69982;BME280;57319;56.274;43.980;2023-01-29T05:04:08;99770.38;;;-4.52;81.08
69982;BME280;57319;56.274;43.980;2023-01-29T05:06:36;99758.09;;;-4.64;81.17
69982;BME280;57319;56.274;43.980;2023-01-29T05:09:03;99755.59;;;-4.64;81.24
69982;BME280;57319;56.274;43.980;2023-01-29T05:11:30;99760.56;;;-4.66;81.23
69982;BME280;57319;56.274;43.980;2023-01-29T05:13:57;99764.84;;;-4.63;81.53
69982;BME280;57319;56.274;43.980;2023-01-29T05:16:28;99765.72;;;-4.63;81.26
69982;BME280;57319;56.274;43.980;2023-01-29T05:18:54;99762.00;;;-4.53;81.30
69982;BME280;57319;56.274;43.980;2023-01-29T05:21:20;99769.59;;;-4.51;81.27
69982;BME280;57319;56.274;43.980;2023-01-29T05:26:32;99765.34;;;-4.52;80.58
69982;BME280;57319;56.274;43.980;2023-01-29T05:29:16;99753.44;;;-4.56;80.71
69982;BME280;57319;56.274;43.980;2023-01-29T05:31:43;99758.31;;;-4.60;80.18
69982;BME280;57319;56.274;43.980;2023-01-29T05:34:08;99755.81;;;-4.60;80.64
69982;BME280;57319;56.274;43.980;2023-01-29T05:36:34;99756.66;;;-4.59;80.35
69982;BME280;57319;56.274;43.980;2023-01-29T05:39:00;99757.53;;;-4.58;80.34
69982;BME280;57319;56.274;43.980;2023-01-29T05:41:25;99760.97;;;-4.56;80.51
69982;BME280;57319;56.274;43.980;2023-01-29T05:43:51;99748.91;;;-4.64;80.36
69982;BME280;57319;56.274;43.980;2023-01-29T05:46:16;99753.22;;;-4.61;80.42
69982;BME280;57319;56.274;43.980;2023-01-29T05:48:42;99751.50;;;-4.62;80.18
69982;BME280;57319;56.274;43.980;2023-01-29T05:51:07;99741.59;;;-4.59;80.72
69982;BME280;57319;56.274;43.980;2023-01-29T05:53:33;99735.06;;;-4.55;80.49
69982;BME280;57319;56.274;43.980;2023-01-29T05:56:03;99741.19;;;-4.50;80.07
69982;BME280;57319;56.274;43.980;2023-01-29T05:58:30;99737.06;;;-4.48;80.52
69982;BME280;57319;56.274;43.980;2023-01-29T06:00:56;99729.19;;;-4.56;80.35
69982;BME280;57319;56.274;43.980;2023-01-29T06:03:22;99735.84;;;-4.56;80.07
69982;BME280;57319;56.274;43.980;2023-01-29T06:05:47;99731.25;;;-4.65;79.95
69982;BME280;57319;56.274;43.980;2023-01-29T06:08:13;99733.13;;;-4.61;80.14
69982;BME280;57319;56.274;43.980;2023-01-29T06:10:38;99735.56;;;-4.63;79.88
69982;BME280;57319;56.274;43.980;2023-01-29T06:13:04;99743.69;;;-4.68;80.69
69982;BME280;57319;56.274;43.980;2023-01-29T06:15:31;99732.81;;;-4.67;79.85
69982;BME280;57319;56.274;43.980;2023-01-29T06:17:56;99727.91;;;-4.66;79.98
69982;BME280;57319;56.274;43.980;2023-01-29T06:20:22;99723.72;;;-4.65;79.96
69982;BME280;57319;56.274;43.980;2023-01-29T06:22:48;99727.00;;;-4.66;79.47
69982;BME280;57319;56.274;43.980;2023-01-29T06:25:14;99724.63;;;-4.63;80.15
69982;BME280;57319;56.274;43.980;2023-01-29T06:27:39;99710.50;;;-4.61;79.77
69982;BME280;57319;56.274;43.980;2023-01-29T06:30:06;99717.97;;;-4.63;79.86
69982;BME280;57319;56.274;43.980;2023-01-29T06:32:32;99716.31;;;-4.62;80.36
69982;BME280;57319;56.274;43.980;2023-01-29T06:34:58;99718.31;;;-4.73;79.68
69982;BME280;57319;56.274;43.980;2023-01-29T06:37:24;99708.34;;;-4.71;79.97
69982;BME280;57319;56.274;43.980;2023-01-29T06:39:49;99715.03;;;-4.72;80.18
69982;BME280;57319;56.274;43.980;2023-01-29T06:42:15;99704.13;;;-4.72;79.68
69982;BME280;57319;56.274;43.980;2023-01-29T06:44:41;99698.03;;;-4.60;79.93
69982;BME280;57319;56.274;43.980;2023-01-29T06:47:06;99705.44;;;-4.63;79.80
69982;BME280;57319;56.274;43.980;2023-01-29T06:49:32;99702.78;;;-4.66;79.55
69982;BME280;57319;56.274;43.980;2023-01-29T06:51:57;99709.75;;;-4.60;79.38
69982;BME280;57319;56.274;43.980;2023-01-29T06:54:23;99714.69;;;-4.62;79.60
69982;BME280;57319;56.274;43.980;2023-01-29T06:56:49;99713.09;;;-4.60;79.21
69982;BME280;57319;56.274;43.980;2023-01-29T06:59:14;99703.56;;;-4.49;79.31
69982;BME280;57319;56.274;43.980;2023-01-29T07:01:40;99705.22;;;-4.49;78.02
69982;BME280;57319;56.274;43.980;2023-01-29T07:04:09;99700.69;;;-4.56;77.54
69982;BME280;57319;56.274;43.980;2023-01-29T07:06:35;99699.31;;;-4.68;77.53
69982;BME280;57319;56.274;43.980;2023-01-29T07:09:02;99700.66;;;-4.74;77.87
69982;BME280;57319;56.274;43.980;2023-01-29T07:11:27;99702.34;;;-4.75;78.05
69982;BME280;57319;56.274;43.980;2023-01-29T07:13:53;99707.34;;;-4.75;78.53
69982;BME280;57319;56.274;43.980;2023-01-29T07:16:18;99699.19;;;-4.71;78.60
69982;BME280;57319;56.274;43.980;2023-01-29T07:18:44;99700.41;;;-4.63;78.77
69982;BME280;57319;56.274;43.980;2023-01-29T07:21:09;99692.72;;;-4.66;78.70
69982;BME280;57319;56.274;43.980;2023-01-29T07:23:35;99692.22;;;-4.58;78.35
69982;BME280;57319;56.274;43.980;2023-01-29T07:26:02;99689.78;;;-4.57;78.18
69982;BME280;57319;56.274;43.980;2023-01-29T07:28:28;99682.03;;;-4.62;78.62
69982;BME280;57319;56.274;43.980;2023-01-29T07:30:57;99684.81;;;-4.55;78.41
69982;BME280;57319;56.274;43.980;2023-01-29T07:33:23;99687.19;;;-4.40;78.34
69982;BME280;57319;56.274;43.980;2023-01-29T07:35:49;99689.34;;;-4.48;77.83
69982;BME280;57319;56.274;43.980;2023-01-29T07:38:15;99692.78;;;-4.46;77.75
69982;BME280;57319;56.274;43.980;2023-01-29T07:40:40;99692.84;;;-4.45;78.02
69982;BME280;57319;56.274;43.980;2023-01-29T07:43:07;99696.59;;;-4.36;77.71
69982;BME280;57319;56.274;43.980;2023-01-29T07:45:35;99693.63;;;-4.28;77.93
69982;BME280;57319;56.274;43.980;2023-01-29T07:48:01;99693.78;;;-4.24;77.19
69982;BME280;57319;56.274;43.980;2023-01-29T07:50:30;99684.75;;;-4.39;75.74
69982;BME280;57319;56.274;43.980;2023-01-29T07:52:56;99678.44;;;-4.49;76.48
69982;BME280;57319;56.274;43.980;2023-01-29T07:55:22;99674.31;;;-4.47;75.61
69982;BME280;57319;56.274;43.980;2023-01-29T07:58:00;99680.22;;;-4.46;75.48
69982;BME280;57319;56.274;43.980;2023-01-29T08:00:27;99678.81;;;-4.41;75.69
69982;BME280;57319;56.274;43.980;2023-01-29T08:02:53;99682.44;;;-4.52;75.62
69982;BME280;57319;56.274;43.980;2023-01-29T08:05:19;99672.63;;;-4.48;75.96
69982;BME280;57319;56.274;43.980;2023-01-29T08:07:45;99665.34;;;-4.41;75.51
69982;BME280;57319;56.274;43.980;2023-01-29T08:10:10;99677.41;;;-4.52;74.15
69982;BME280;57319;56.274;43.980;2023-01-29T08:12:36;99656.34;;;-4.56;74.67
69982;BME280;57319;56.274;43.980;2023-01-29T08:15:02;99669.31;;;-4.47;74.65
69982;BME280;57319;56.274;43.980;2023-01-29T08:17:29;99657.13;;;-4.57;74.06
69982;BME280;57319;56.274;43.980;2023-01-29T08:19:54;99656.47;;;-4.53;73.95
69982;BME280;57319;56.274;43.980;2023-01-29T08:22:20;99656.41;;;-4.54;73.06
69982;BME280;57319;56.274;43.980;2023-01-29T08:24:46;99637.22;;;-4.52;73.24
69982;BME280;57319;56.274;43.980;2023-01-29T08:27:11;99639.56;;;-4.37;73.07
69982;BME280;57319;56.274;43.980;2023-01-29T08:29:37;99641.31;;;-4.36;72.58
69982;BME280;57319;56.274;43.980;2023-01-29T08:32:02;99632.97;;;-4.35;72.12
69982;BME280;57319;56.274;43.980;2023-01-29T08:34:28;99635.75;;;-4.29;73.04
69982;BME280;57319;56.274;43.980;2023-01-29T08:36:53;99635.88;;;-4.26;72.17
69982;BME280;57319;56.274;43.980;2023-01-29T08:39:19;99632.59;;;-4.25;71.77
69982;BME280;57319;56.274;43.980;2023-01-29T08:41:44;99626.66;;;-4.27;71.74
69982;BME280;57319;56.274;43.980;2023-01-29T08:44:10;99620.75;;;-4.28;71.78
69982;BME280;57319;56.274;43.980;2023-01-29T08:46:36;99626.91;;;-4.21;72.12
69982;BME280;57319;56.274;43.980;2023-01-29T08:49:02;99626.16;;;-4.38;71.80
69982;BME280;57319;56.274;43.980;2023-01-29T08:51:28;99617.84;;;-4.37;72.40
69982;BME280;57319;56.274;43.980;2023-01-29T08:53:53;99619.41;;;-4.39;72.24
69982;BME280;57319;56.274;43.980;2023-01-29T08:56:19;99621.13;;;-4.38;72.13
69982;BME280;57319;56.274;43.980;2023-01-29T08:58:45;99620.34;;;-4.37;72.14
69982;BME280;57319;56.274;43.980;2023-01-29T09:01:12;99615.22;;;-4.38;72.10
69982;BME280;57319;56.274;43.980;2023-01-29T09:03:38;99604.41;;;-4.37;72.64
69982;BME280;57319;56.274;43.980;2023-01-29T09:06:09;99612.28;;;-4.30;72.00
69982;BME280;57319;56.274;43.980;2023-01-29T09:08:36;99611.66;;;-4.44;71.73
69982;BME280;57319;56.274;43.980;2023-01-29T09:11:01;99606.59;;;-4.45;71.45
69982;BME280;57319;56.274;43.980;2023-01-29T09:13:27;99602.88;;;-4.34;71.44
69982;BME280;57319;56.274;43.980;2023-01-29T09:15:52;99599.91;;;-4.25;71.35
69982;BME280;57319;56.274;43.980;2023-01-29T09:18:18;99598.47;;;-4.20;71.62
69982;BME280;57319;56.274;43.980;2023-01-29T09:20:46;99591.31;;;-4.30;69.98
69982;BME280;57319;56.274;43.980;2023-01-29T09:23:12;99586.38;;;-4.29;70.31
69982;BME280;57319;56.274;43.980;2023-01-29T09:25:37;99585.66;;;-4.44;70.40
69982;BME280;57319;56.274;43.980;2023-01-29T09:28:03;99585.72;;;-4.43;70.54
69982;BME280;57319;56.274;43.980;2023-01-29T09:30:30;99586.94;;;-4.34;70.46
69982;BME280;57319;56.274;43.980;2023-01-29T09:32:59;99588.06;;;-4.28;70.39
69982;BME280;57319;56.274;43.980;2023-01-29T09:35:25;99572.91;;;-4.49;69.85
69982;BME280;57319;56.274;43.980;2023-01-29T09:37:50;99583.03;;;-4.47;69.80
69982;BME280;57319;56.274;43.980;2023-01-29T09:40:24;99575.94;;;-4.56;69.41
69982;BME280;57319;56.274;43.980;2023-01-29T09:46:20;99575.59;;;-4.64;69.02
69982;BME280;57319;56.274;43.980;2023-01-29T09:48:59;99585.00;;;-4.78;69.61
69982;BME280;57319;56.274;43.980;2023-01-29T09:51:57;99579.22;;;-4.77;69.84
69982;BME280;57319;56.274;43.980;2023-01-29T09:54:29;99581.56;;;-4.80;70.09
69982;BME280;57319;56.274;43.980;2023-01-29T09:56:59;99574.25;;;-4.75;70.56
69982;BME280;57319;56.274;43.980;2023-01-29T09:59:26;99569.22;;;-4.75;69.85
69982;BME280;57319;56.274;43.980;2023-01-29T10:04:51;99561.88;;;-4.70;70.59
69982;BME280;57319;56.274;43.980;2023-01-29T10:07:42;99556.22;;;-4.66;70.26
69982;BME280;57319;56.274;43.980;2023-01-29T10:10:29;99556.94;;;-4.69;69.81
69982;BME280;57319;56.274;43.980;2023-01-29T10:26:49;99535.06;;;-4.89;70.22
69982;BME280;57319;56.274;43.980;2023-01-29T10:29:18;99528.56;;;-4.86;70.26
69982;BME280;57319;56.274;43.980;2023-01-29T10:31:51;99522.69;;;-4.86;69.80
69982;BME280;57319;56.274;43.980;2023-01-29T10:34:49;99521.53;;;-4.93;70.12
69982;BME280;57319;56.274;43.980;2023-01-29T10:37:22;99524.78;;;-4.96;70.35
69982;BME280;57319;56.274;43.980;2023-01-29T10:39:49;99508.38;;;-5.07;69.90
69982;BME280;57319;56.274;43.980;2023-01-29T10:59:24;99504.00;;;-5.11;70.56
69982;BME280;57319;56.274;43.980;2023-01-29T11:01:58;99495.59;;;-5.30;70.50
69982;BME280;57319;56.274;43.980;2023-01-29T11:04:25;99496.19;;;-5.35;71.00
69982;BME280;57319;56.274;43.980;2023-01-29T11:06:52;99491.50;;;-5.46;71.23
69982;BME280;57319;56.274;43.980;2023-01-29T11:09:33;99496.81;;;-5.39;71.09
69982;BME280;57319;56.274;43.980;2023-01-29T11:12:02;99501.34;;;-5.50;71.76
69982;BME280;57319;56.274;43.980;2023-01-29T11:14:40;99500.09;;;-5.58;71.27
69982;BME280;57319;56.274;43.980;2023-01-29T11:17:14;99494.19;;;-5.60;71.68
69982;BME280;57319;56.274;43.980;2023-01-29T11:19:43;99490.72;;;-5.63;72.12
69982;BME280;57319;56.274;43.980;2023-01-29T11:22:19;99497.75;;;-5.55;72.09
69982;BME280;57319;56.274;43.980;2023-01-29T11:27:32;99480.56;;;-5.48;72.06
69982;BME280;57319;56.274;43.980;2023-01-29T11:30:00;99476.97;;;-5.53;71.56
69982;BME280;57319;56.274;43.980;2023-01-29T11:32:29;99486.22;;;-5.52;71.76
69982;BME280;57319;56.274;43.980;2023-01-29T11:35:02;99477.91;;;-5.51;71.72
69982;BME280;57319;56.274;43.980;2023-01-29T11:37:33;99481.06;;;-5.55;72.21
69982;BME280;57319;56.274;43.980;2023-01-29T11:39:59;99477.69;;;-5.55;72.16
69982;BME280;57319;56.274;43.980;2023-01-29T11:42:30;99467.00;;;-5.51;72.03
69982;BME280;57319;56.274;43.980;2023-01-29T11:44:55;99477.53;;;-5.58;71.96
69982;BME280;57319;56.274;43.980;2023-01-29T11:47:28;99471.75;;;-5.57;72.43
69982;BME280;57319;56.274;43.980;2023-01-29T11:49:57;99461.63;;;-5.59;72.37
69982;BME280;57319;56.274;43.980;2023-01-29T11:52:32;99450.59;;;-5.63;72.76
69982;BME280;57319;56.274;43.980;2023-01-29T11:55:02;99456.38;;;-5.64;72.38
69982;BME280;57319;56.274;43.980;2023-01-29T11:57:35;99449.09;;;-5.59;72.17
69982;BME280;57319;56.274;43.980;2023-01-29T12:00:05;99437.91;;;-5.66;72.37
69982;BME280;57319;56.274;43.980;2023-01-29T12:02:41;99440.00;;;-5.57;72.61
69982;BME280;57319;56.274;43.980;2023-01-29T12:05:19;99441.72;;;-5.56;72.41
69982;BME280;57319;56.274;43.980;2023-01-29T12:07:48;99453.69;;;-5.50;72.82
69982;BME280;57319;56.274;43.980;2023-01-29T12:10:36;99451.59;;;-5.59;72.83
69982;BME280;57319;56.274;43.980;2023-01-29T12:15:35;99444.88;;;-5.60;73.70
69982;BME280;57319;56.274;43.980;2023-01-29T12:20:51;99446.66;;;-5.57;73.67
69982;BME280;57319;56.274;43.980;2023-01-29T12:23:24;99458.69;;;-5.68;73.98
69982;BME280;57319;56.274;43.980;2023-01-29T12:26:08;99451.38;;;-5.82;74.06
69982;BME280;57319;56.274;43.980;2023-01-29T12:34:16;99453.94;;;-5.80;73.98
69982;BME280;57319;56.274;43.980;2023-01-29T12:37:11;99450.66;;;-5.79;74.05
69982;BME280;57319;56.274;43.980;2023-01-29T12:39:35;99447.44;;;-5.76;74.19
69982;BME280;57319;56.274;43.980;2023-01-29T12:42:15;99446.41;;;-5.80;74.34
69982;BME280;57319;56.274;43.980;2023-01-29T12:44:55;99433.75;;;-5.83;74.21
69982;BME280;57319;56.274;43.980;2023-01-29T12:47:27;99438.25;;;-5.76;75.09
69982;BME280;57319;56.274;43.980;2023-01-29T12:50:08;99442.50;;;-5.75;74.44
69982;BME280;57319;56.274;43.980;2023-01-29T12:52:46;99444.94;;;-5.76;73.96
69982;BME280;57319;56.274;43.980;2023-01-29T12:55:17;99440.13;;;-5.72;74.13
69982;BME280;57319;56.274;43.980;2023-01-29T12:57:57;99434.97;;;-5.75;73.96
69982;BME280;57319;56.274;43.980;2023-01-29T13:00:35;99435.47;;;-5.82;73.91
69982;BME280;57319;56.274;43.980;2023-01-29T13:03:09;99435.69;;;-5.77;74.43
69982;BME280;57319;56.274;43.980;2023-01-29T13:05:48;99425.44;;;-5.82;74.26
69982;BME280;57319;56.274;43.980;2023-01-29T13:08:24;99437.19;;;-5.81;74.44
69982;BME280;57319;56.274;43.980;2023-01-29T13:10:53;99433.81;;;-5.82;74.61
69982;BME280;57319;56.274;43.980;2023-01-29T13:14:00;99429.69;;;-5.81;74.52
69982;BME280;57319;56.274;43.980;2023-01-29T13:16:37;99426.81;;;-5.89;74.74
69982;BME280;57319;56.274;43.980;2023-01-29T13:19:17;99421.00;;;-5.88;75.24
69982;BME280;57319;56.274;43.980;2023-01-29T13:21:45;99424.72;;;-5.80;75.01
69982;BME280;57319;56.274;43.980;2023-01-29T13:24:17;99416.84;;;-5.87;74.32
69982;BME280;57319;56.274;43.980;2023-01-29T13:26:45;99422.81;;;-5.85;74.67
69982;BME280;57319;56.274;43.980;2023-01-29T13:29:29;99425.78;;;-5.92;74.71
69982;BME280;57319;56.274;43.980;2023-01-29T13:32:00;99408.94;;;-5.95;74.31
69982;BME280;57319;56.274;43.980;2023-01-29T13:34:43;99409.47;;;-6.02;74.71
69982;BME280;57319;56.274;43.980;2023-01-29T13:37:16;99413.56;;;-6.04;75.11
69982;BME280;57319;56.274;43.980;2023-01-29T13:39:47;99412.69;;;-6.05;74.96
69982;BME280;57319;56.274;43.980;2023-01-29T13:42:18;99421.22;;;-6.01;75.50
69982;BME280;57319;56.274;43.980;2023-01-29T13:44:50;99411.97;;;-6.02;74.96
69982;BME280;57319;56.274;43.980;2023-01-29T13:47:26;99415.28;;;-6.03;75.17
69982;BME280;57319;56.274;43.980;2023-01-29T13:50:00;99413.34;;;-6.09;75.29
69982;BME280;57319;56.274;43.980;2023-01-29T13:52:38;99415.00;;;-6.09;74.97
69982;BME280;57319;56.274;43.980;2023-01-29T13:57:46;99409.66;;;-6.16;74.97
69982;BME280;57319;56.274;43.980;2023-01-29T14:02:47;99408.56;;;-6.04;75.09
69982;BME280;57319;56.274;43.980;2023-01-29T14:05:39;99408.38;;;-6.07;74.65
69982;BME280;57319;56.274;43.980;2023-01-29T14:08:35;99415.84;;;-6.09;75.22
69982;BME280;57319;56.274;43.980;2023-01-29T14:13:43;99413.19;;;-6.12;74.75
69982;BME280;57319;56.274;43.980;2023-01-29T14:18:35;99412.16;;;-6.16;74.86
69982;BME280;57319;56.274;43.980;2023-01-29T14:23:44;99425.09;;;-6.08;75.17
69982;BME280;57319;56.274;43.980;2023-01-29T14:26:42;99407.69;;;-6.05;74.98
69982;BME280;57319;56.274;43.980;2023-01-29T14:29:21;99405.81;;;-6.09;75.31
69982;BME280;57319;56.274;43.980;2023-01-29T14:32:39;99418.00;;;-5.99;74.90
69982;BME280;57319;56.274;43.980;2023-01-29T14:37:35;99399.72;;;-5.96;74.31
69982;BME280;57319;56.274;43.980;2023-01-29T14:43:07;99409.47;;;-6.02;74.16
69982;BME280;57319;56.274;43.980;2023-01-29T14:45:35;99399.38;;;-6.04;74.08
69982;BME280;57319;56.274;43.980;2023-01-29T15:01:17;99381.06;;;-6.21;74.33
69982;BME280;57319;56.274;43.980;2023-01-29T15:03:46;99384.19;;;-6.25;74.13